Terminal Aerodrome Forecast
Issued by NWS Wilmington, NC

Home | Current Version | Previous Version | Text Only | Print | Product List | Glossary On
Versions: 1 2 3 4 5 6 7 8 9 10 11 12 13 14 15 16
992
FTUS42 KILM 211202 CCA
TAFMYR
TAF COR
KMYR 211202Z 2112/2212 34005KT P6SM FEW080
      TEMPO 2112/2113 4SM BR
     FM211700 16008KT P6SM VCSH SCT050
     FM220300 VRB03KT P6SM SCT250
     FM221000 00000KT 5SM BR SCT250=

USA.gov is the U.S. government's official web portal to all federal, state and local government web resources and services.